Atwood, CA (92811)

12:41 AM PST on February 09, 2016 (GMT -0800)
SW Yorba Linda/NW Anaheim Hills | | Change Station
CLOSE
Current Station
Personal Weather Station
Location: Yorba Linda, CA
Elevation: 278 ft
Nearby Weather Stations

Elev 278 ft 33.87 °N, 117.80 °W | Updated 3 seconds ago

Clear
Clear
75.9 °F
Feels Like 77 °F
N
8.1
Wind Variable Wind from NNW
Gusts 11.0 mph

Today
High -- | Low -- °F
--% Chance of Precip.
Yesterday
High -- | Low -- °F
Precip. -- in
Pressure 30.11 in
Visibility 10.0 miles
Clouds Clear
Heat Index 77 °F
Dew Point 43 °F
Humidity 31%
Rainfall 0.00 in
Snow Depth Not available.
6:41 AM 5:29 PM
New Moon, 1% visible
METAR KFUL 090753Z 00000KT 10SM CLR 20/M04 A3011 RMK AO2 SLP195 T02001044 403110128
Pressure 30.11 in
Visibility 10.0 miles
Clouds Clear
Heat Index 77 °F
Dew Point 43 °F
Humidity 31%
Rainfall 0.00 in
Snow Depth Not available.
6:41 AM 5:29 PM
New Moon, 1% visible
METAR KFUL 090753Z 00000KT 10SM CLR 20/M04 A3011 RMK AO2 SLP195 T02001044 403110128

10-Day Weather Forecast

Almanac

Astronomy

Feb. 09, 2016 Rise Set
Actual Time
Civil Twilight
Nautical Twilight
Astronomical Twilight
Moon
Length of Visible Light
Length of Day
Tomorrow will be .
, % of the Moon is Illuminated

Today's Extremes

State Highs State Lows

Community

WunderPhotos

Upload Photos

1,891,571 photos uploaded!

WunderBlog® & News

Nearby

Air Quality

  Air Quality AQ Index Pollutant
Not available.

Snow Depth

Station Depth Elevation

Earthquake Activity

City Distance Mag. Time & Date
Minimum magnitude displayed is 2.5.

Coastal Water Temperatures

Place Temperature

Stations

Nearby Weather Stations

Station Location Temp. Windchill Dew Point Humidity Wind Precip. Elev Updated Type
                   

Watches & Warnings

There are currently no watches in effect.